sensor_id;sensor_type;location;lat;lon;timestamp;temperature;humidity
64997;SHT31;51545;51.568;6.998;2022-07-29T00:00:57;19.43;57.99
64997;SHT31;51545;51.568;6.998;2022-07-29T00:03:22;19.36;58.24
64997;SHT31;51545;51.568;6.998;2022-07-29T00:05:48;19.37;58.34
64997;SHT31;51545;51.568;6.998;2022-07-29T00:08:13;19.33;58.43
64997;SHT31;51545;51.568;6.998;2022-07-29T00:10:40;19.32;58.82
64997;SHT31;51545;51.568;6.998;2022-07-29T00:13:06;19.32;58.31
64997;SHT31;51545;51.568;6.998;2022-07-29T00:15:32;19.29;58.64
64997;SHT31;51545;51.568;6.998;2022-07-29T00:17:58;19.26;58.72
64997;SHT31;51545;51.568;6.998;2022-07-29T00:20:23;19.23;58.92
64997;SHT31;51545;51.568;6.998;2022-07-29T00:22:49;19.16;58.81
64997;SHT31;51545;51.568;6.998;2022-07-29T00:25:14;19.18;59.40
64997;SHT31;51545;51.568;6.998;2022-07-29T00:27:39;19.26;59.36
64997;SHT31;51545;51.568;6.998;2022-07-29T00:30:05;19.19;59.73
64997;SHT31;51545;51.568;6.998;2022-07-29T00:32:32;19.16;59.30
64997;SHT31;51545;51.568;6.998;2022-07-29T00:34:57;19.15;59.80
64997;SHT31;51545;51.568;6.998;2022-07-29T00:37:41;19.16;59.69
64997;SHT31;51545;51.568;6.998;2022-07-29T00:40:07;19.09;59.45
64997;SHT31;51545;51.568;6.998;2022-07-29T00:42:45;19.06;59.57
64997;SHT31;51545;51.568;6.998;2022-07-29T00:45:12;18.99;59.50
64997;SHT31;51545;51.568;6.998;2022-07-29T00:47:39;18.88;59.96
64997;SHT31;51545;51.568;6.998;2022-07-29T00:50:05;18.78;60.58
64997;SHT31;51545;51.568;6.998;2022-07-29T00:52:33;18.80;60.52
64997;SHT31;51545;51.568;6.998;2022-07-29T00:55:00;18.75;60.43
64997;SHT31;51545;51.568;6.998;2022-07-29T00:57:28;18.70;60.72
64997;SHT31;51545;51.568;6.998;2022-07-29T00:59:54;18.75;60.37
64997;SHT31;51545;51.568;6.998;2022-07-29T01:02:19;18.71;60.67
64997;SHT31;51545;51.568;6.998;2022-07-29T01:04:45;18.64;60.81
64997;SHT31;51545;51.568;6.998;2022-07-29T01:07:10;18.54;60.87
64997;SHT31;51545;51.568;6.998;2022-07-29T01:09:36;18.61;61.02
64997;SHT31;51545;51.568;6.998;2022-07-29T01:12:03;18.61;60.83
64997;SHT31;51545;51.568;6.998;2022-07-29T01:14:29;18.56;61.30
64997;SHT31;51545;51.568;6.998;2022-07-29T01:16:59;18.56;61.19
64997;SHT31;51545;51.568;6.998;2022-07-29T01:30:59;18.47;61.33
64997;SHT31;51545;51.568;6.998;2022-07-29T01:33:27;18.34;61.77
64997;SHT31;51545;51.568;6.998;2022-07-29T01:36:14;18.29;62.03
64997;SHT31;51545;51.568;6.998;2022-07-29T01:38:44;18.26;61.84
64997;SHT31;51545;51.568;6.998;2022-07-29T01:41:15;18.26;62.06
64997;SHT31;51545;51.568;6.998;2022-07-29T01:43:49;18.26;62.23
64997;SHT31;51545;51.568;6.998;2022-07-29T01:46:31;18.20;62.65
64997;SHT31;51545;51.568;6.998;2022-07-29T01:49:02;18.19;62.77
64997;SHT31;51545;51.568;6.998;2022-07-29T01:57:11;18.19;62.18
64997;SHT31;51545;51.568;6.998;2022-07-29T01:59:39;18.16;63.37
64997;SHT31;51545;51.568;6.998;2022-07-29T02:02:07;18.10;63.66
64997;SHT31;51545;51.568;6.998;2022-07-29T02:04:35;18.09;64.46
64997;SHT31;51545;51.568;6.998;2022-07-29T02:07:03;18.10;63.55
64997;SHT31;51545;51.568;6.998;2022-07-29T02:09:33;18.05;64.07
64997;SHT31;51545;51.568;6.998;2022-07-29T02:12:00;17.99;64.27
64997;SHT31;51545;51.568;6.998;2022-07-29T02:14:29;17.99;64.93
64997;SHT31;51545;51.568;6.998;2022-07-29T02:16:59;18.01;64.85
64997;SHT31;51545;51.568;6.998;2022-07-29T02:19:26;17.98;64.24
64997;SHT31;51545;51.568;6.998;2022-07-29T02:21:54;17.95;64.37
64997;SHT31;51545;51.568;6.998;2022-07-29T02:24:23;17.92;64.54
64997;SHT31;51545;51.568;6.998;2022-07-29T02:26:50;17.87;64.23
64997;SHT31;51545;51.568;6.998;2022-07-29T02:29:18;17.81;65.21
64997;SHT31;51545;51.568;6.998;2022-07-29T02:31:46;17.85;64.95
64997;SHT31;51545;51.568;6.998;2022-07-29T02:34:14;17.88;64.90
64997;SHT31;51545;51.568;6.998;2022-07-29T02:36:42;17.89;64.67
64997;SHT31;51545;51.568;6.998;2022-07-29T02:39:09;17.91;64.59
64997;SHT31;51545;51.568;6.998;2022-07-29T02:41:40;17.91;64.77
64997;SHT31;51545;51.568;6.998;2022-07-29T02:44:14;17.82;65.53
64997;SHT31;51545;51.568;6.998;2022-07-29T02:46:42;17.70;66.00
64997;SHT31;51545;51.568;6.998;2022-07-29T02:49:27;17.63;65.13
64997;SHT31;51545;51.568;6.998;2022-07-29T02:52:01;17.73;64.99
64997;SHT31;51545;51.568;6.998;2022-07-29T02:54:45;17.75;64.80
64997;SHT31;51545;51.568;6.998;2022-07-29T02:57:33;17.75;64.71
64997;SHT31;51545;51.568;6.998;2022-07-29T03:00:05;17.73;64.46
64997;SHT31;51545;51.568;6.998;2022-07-29T03:02:34;17.60;64.60
64997;SHT31;51545;51.568;6.998;2022-07-29T03:05:03;17.57;65.04
64997;SHT31;51545;51.568;6.998;2022-07-29T03:07:31;17.49;66.03
64997;SHT31;51545;51.568;6.998;2022-07-29T03:09:59;17.42;66.12
64997;SHT31;51545;51.568;6.998;2022-07-29T03:12:26;17.43;65.76
64997;SHT31;51545;51.568;6.998;2022-07-29T03:14:52;17.47;66.01
64997;SHT31;51545;51.568;6.998;2022-07-29T03:17:18;17.47;65.98
64997;SHT31;51545;51.568;6.998;2022-07-29T03:19:45;17.54;65.73
64997;SHT31;51545;51.568;6.998;2022-07-29T03:22:11;17.57;65.82
64997;SHT31;51545;51.568;6.998;2022-07-29T03:24:37;17.63;65.74
64997;SHT31;51545;51.568;6.998;2022-07-29T03:27:03;17.49;66.14
64997;SHT31;51545;51.568;6.998;2022-07-29T03:29:30;17.39;66.80
64997;SHT31;51545;51.568;6.998;2022-07-29T03:31:56;17.36;66.52
64997;SHT31;51545;51.568;6.998;2022-07-29T03:34:22;17.44;66.74
64997;SHT31;51545;51.568;6.998;2022-07-29T03:36:48;17.44;66.56
64997;SHT31;51545;51.568;6.998;2022-07-29T03:39:15;17.44;66.26
64997;SHT31;51545;51.568;6.998;2022-07-29T03:41:53;17.36;66.68
64997;SHT31;51545;51.568;6.998;2022-07-29T03:44:22;17.32;66.57
64997;SHT31;51545;51.568;6.998;2022-07-29T03:46:51;17.39;66.58
64997;SHT31;51545;51.568;6.998;2022-07-29T03:49:19;17.53;66.54
64997;SHT31;51545;51.568;6.998;2022-07-29T03:51:47;17.60;65.86
64997;SHT31;51545;51.568;6.998;2022-07-29T03:54:12;17.64;65.85
64997;SHT31;51545;51.568;6.998;2022-07-29T03:56:42;17.47;66.37
64997;SHT31;51545;51.568;6.998;2022-07-29T03:59:13;17.42;66.32
64997;SHT31;51545;51.568;6.998;2022-07-29T04:01:40;17.49;66.19
64997;SHT31;51545;51.568;6.998;2022-07-29T04:04:07;17.53;66.25
64997;SHT31;51545;51.568;6.998;2022-07-29T04:06:40;17.53;66.66
64997;SHT31;51545;51.568;6.998;2022-07-29T04:09:06;17.49;66.66
64997;SHT31;51545;51.568;6.998;2022-07-29T04:11:33;17.53;66.22
64997;SHT31;51545;51.568;6.998;2022-07-29T04:13:59;17.54;66.33
64997;SHT31;51545;51.568;6.998;2022-07-29T04:16:24;17.32;66.84
64997;SHT31;51545;51.568;6.998;2022-07-29T04:18:50;17.25;67.72
64997;SHT31;51545;51.568;6.998;2022-07-29T04:21:15;17.19;67.67
64997;SHT31;51545;51.568;6.998;2022-07-29T04:23:40;17.16;67.73
64997;SHT31;51545;51.568;6.998;2022-07-29T04:26:06;17.11;68.08
64997;SHT31;51545;51.568;6.998;2022-07-29T04:28:34;17.04;68.16
64997;SHT31;51545;51.568;6.998;2022-07-29T04:31:00;17.11;68.21
64997;SHT31;51545;51.568;6.998;2022-07-29T04:33:25;17.06;68.27
64997;SHT31;51545;51.568;6.998;2022-07-29T04:35:51;17.18;68.02
64997;SHT31;51545;51.568;6.998;2022-07-29T04:38:16;17.01;69.61
64997;SHT31;51545;51.568;6.998;2022-07-29T04:40:42;16.99;71.58
64997;SHT31;51545;51.568;6.998;2022-07-29T04:43:07;16.98;73.91
64997;SHT31;51545;51.568;6.998;2022-07-29T04:45:33;16.75;76.00
64997;SHT31;51545;51.568;6.998;2022-07-29T04:47:58;16.57;76.30
64997;SHT31;51545;51.568;6.998;2022-07-29T04:50:24;16.57;77.66
64997;SHT31;51545;51.568;6.998;2022-07-29T04:52:49;16.60;77.97
64997;SHT31;51545;51.568;6.998;2022-07-29T04:55:15;16.60;78.39
64997;SHT31;51545;51.568;6.998;2022-07-29T04:57:40;16.56;80.04
64997;SHT31;51545;51.568;6.998;2022-07-29T05:00:06;16.44;80.53
64997;SHT31;51545;51.568;6.998;2022-07-29T05:02:32;16.46;78.57
64997;SHT31;51545;51.568;6.998;2022-07-29T05:04:57;16.44;77.79
64997;SHT31;51545;51.568;6.998;2022-07-29T05:07:23;16.36;78.89
64997;SHT31;51545;51.568;6.998;2022-07-29T05:09:48;16.29;78.14
64997;SHT31;51545;51.568;6.998;2022-07-29T05:12:14;16.35;78.13
64997;SHT31;51545;51.568;6.998;2022-07-29T05:14:39;16.37;77.47
64997;SHT31;51545;51.568;6.998;2022-07-29T05:17:05;16.44;76.88
64997;SHT31;51545;51.568;6.998;2022-07-29T05:19:30;16.43;76.45
64997;SHT31;51545;51.568;6.998;2022-07-29T05:21:56;16.46;75.76
64997;SHT31;51545;51.568;6.998;2022-07-29T05:24:22;16.49;75.57
64997;SHT31;51545;51.568;6.998;2022-07-29T05:26:47;16.52;75.69
64997;SHT31;51545;51.568;6.998;2022-07-29T05:29:13;16.57;75.20
64997;SHT31;51545;51.568;6.998;2022-07-29T05:31:38;16.57;75.27
64997;SHT31;51545;51.568;6.998;2022-07-29T05:34:04;16.63;74.83
64997;SHT31;51545;51.568;6.998;2022-07-29T05:36:29;16.60;74.74
64997;SHT31;51545;51.568;6.998;2022-07-29T05:38:55;16.63;75.51
64997;SHT31;51545;51.568;6.998;2022-07-29T05:41:20;16.61;75.83
64997;SHT31;51545;51.568;6.998;2022-07-29T05:43:46;16.50;75.66
64997;SHT31;51545;51.568;6.998;2022-07-29T05:46:11;16.47;75.81
64997;SHT31;51545;51.568;6.998;2022-07-29T05:48:38;16.50;76.23
64997;SHT31;51545;51.568;6.998;2022-07-29T05:51:04;16.42;77.23
64997;SHT31;51545;51.568;6.998;2022-07-29T05:53:30;16.39;78.72
64997;SHT31;51545;51.568;6.998;2022-07-29T05:55:55;16.32;77.77
64997;SHT31;51545;51.568;6.998;2022-07-29T05:58:21;16.35;77.72
64997;SHT31;51545;51.568;6.998;2022-07-29T06:00:47;16.30;77.28
64997;SHT31;51545;51.568;6.998;2022-07-29T06:03:12;16.39;77.56
64997;SHT31;51545;51.568;6.998;2022-07-29T06:05:37;16.56;78.51
64997;SHT31;51545;51.568;6.998;2022-07-29T06:08:03;16.64;80.74
64997;SHT31;51545;51.568;6.998;2022-07-29T06:10:32;16.70;80.24
64997;SHT31;51545;51.568;6.998;2022-07-29T06:12:59;16.75;78.67
64997;SHT31;51545;51.568;6.998;2022-07-29T06:15:25;16.85;78.62
64997;SHT31;51545;51.568;6.998;2022-07-29T06:17:51;16.81;79.06
64997;SHT31;51545;51.568;6.998;2022-07-29T06:20:17;16.78;77.99
64997;SHT31;51545;51.568;6.998;2022-07-29T06:22:43;16.92;77.78
64997;SHT31;51545;51.568;6.998;2022-07-29T06:25:09;17.01;77.01
64997;SHT31;51545;51.568;6.998;2022-07-29T06:27:34;17.09;76.19
64997;SHT31;51545;51.568;6.998;2022-07-29T06:30:00;17.16;76.00
64997;SHT31;51545;51.568;6.998;2022-07-29T06:32:26;17.15;75.89
64997;SHT31;51545;51.568;6.998;2022-07-29T06:34:52;17.08;75.89
64997;SHT31;51545;51.568;6.998;2022-07-29T06:37:17;17.08;75.96
64997;SHT31;51545;51.568;6.998;2022-07-29T06:39:43;17.15;76.64
64997;SHT31;51545;51.568;6.998;2022-07-29T06:42:08;17.19;76.51
64997;SHT31;51545;51.568;6.998;2022-07-29T06:44:34;17.27;75.24
64997;SHT31;51545;51.568;6.998;2022-07-29T06:47:00;17.36;74.27
64997;SHT31;51545;51.568;6.998;2022-07-29T06:49:25;17.30;74.62
64997;SHT31;51545;51.568;6.998;2022-07-29T06:51:52;17.18;76.16
64997;SHT31;51545;51.568;6.998;2022-07-29T06:54:18;17.05;77.18
64997;SHT31;51545;51.568;6.998;2022-07-29T06:56:44;16.85;78.75
64997;SHT31;51545;51.568;6.998;2022-07-29T06:59:11;16.81;78.15
64997;SHT31;51545;51.568;6.998;2022-07-29T07:01:38;16.89;77.65
64997;SHT31;51545;51.568;6.998;2022-07-29T07:04:05;17.06;76.51
64997;SHT31;51545;51.568;6.998;2022-07-29T07:06:31;17.06;75.24
64997;SHT31;51545;51.568;6.998;2022-07-29T07:08:56;17.11;75.09
64997;SHT31;51545;51.568;6.998;2022-07-29T07:11:22;17.18;74.71
64997;SHT31;51545;51.568;6.998;2022-07-29T07:13:47;17.25;74.22
64997;SHT31;51545;51.568;6.998;2022-07-29T07:16:13;17.36;74.81
64997;SHT31;51545;51.568;6.998;2022-07-29T07:18:38;17.39;74.21
64997;SHT31;51545;51.568;6.998;2022-07-29T07:21:04;17.51;74.42
64997;SHT31;51545;51.568;6.998;2022-07-29T07:23:30;17.58;73.76
64997;SHT31;51545;51.568;6.998;2022-07-29T07:25:56;17.63;73.62
64997;SHT31;51545;51.568;6.998;2022-07-29T07:28:21;17.69;73.68
64997;SHT31;51545;51.568;6.998;2022-07-29T07:30:47;17.70;73.41
64997;SHT31;51545;51.568;6.998;2022-07-29T07:33:12;17.78;73.81
64997;SHT31;51545;51.568;6.998;2022-07-29T07:35:38;17.74;72.85
64997;SHT31;51545;51.568;6.998;2022-07-29T07:38:04;17.70;73.13
64997;SHT31;51545;51.568;6.998;2022-07-29T07:40:31;17.81;72.46
64997;SHT31;51545;51.568;6.998;2022-07-29T07:42:56;17.87;72.73
64997;SHT31;51545;51.568;6.998;2022-07-29T07:45:22;18.01;72.63
64997;SHT31;51545;51.568;6.998;2022-07-29T07:47:48;18.16;72.59
64997;SHT31;51545;51.568;6.998;2022-07-29T07:50:14;18.20;71.54
64997;SHT31;51545;51.568;6.998;2022-07-29T07:52:47;18.25;71.92
64997;SHT31;51545;51.568;6.998;2022-07-29T07:55:14;18.36;72.16
64997;SHT31;51545;51.568;6.998;2022-07-29T07:57:39;18.54;71.23
64997;SHT31;51545;51.568;6.998;2022-07-29T08:00:05;18.67;71.24
64997;SHT31;51545;51.568;6.998;2022-07-29T08:02:31;18.82;70.27
64997;SHT31;51545;51.568;6.998;2022-07-29T08:04:57;18.88;70.56
64997;SHT31;51545;51.568;6.998;2022-07-29T08:07:22;19.01;70.08
64997;SHT31;51545;51.568;6.998;2022-07-29T08:09:48;18.95;69.17
64997;SHT31;51545;51.568;6.998;2022-07-29T08:12:13;18.74;68.64
64997;SHT31;51545;51.568;6.998;2022-07-29T08:14:39;18.60;68.62
64997;SHT31;51545;51.568;6.998;2022-07-29T08:17:04;18.61;69.94
64997;SHT31;51545;51.568;6.998;2022-07-29T08:19:30;18.75;70.29
64997;SHT31;51545;51.568;6.998;2022-07-29T08:21:55;18.91;70.34
64997;SHT31;51545;51.568;6.998;2022-07-29T08:24:21;18.99;70.05
64997;SHT31;51545;51.568;6.998;2022-07-29T08:27:05;19.10;70.78
64997;SHT31;51545;51.568;6.998;2022-07-29T08:29:31;19.10;69.97
64997;SHT31;51545;51.568;6.998;2022-07-29T08:31:56;19.19;69.67
64997;SHT31;51545;51.568;6.998;2022-07-29T08:34:22;19.20;70.03
64997;SHT31;51545;51.568;6.998;2022-07-29T08:36:47;19.08;69.27
64997;SHT31;51545;51.568;6.998;2022-07-29T08:39:13;19.12;69.90
64997;SHT31;51545;51.568;6.998;2022-07-29T08:41:38;19.20;70.15
64997;SHT31;51545;51.568;6.998;2022-07-29T08:44:04;19.22;70.11
64997;SHT31;51545;51.568;6.998;2022-07-29T08:46:29;19.22;69.74
64997;SHT31;51545;51.568;6.998;2022-07-29T08:48:55;19.08;72.29
64997;SHT31;51545;51.568;6.998;2022-07-29T08:51:21;18.94;71.67
64997;SHT31;51545;51.568;6.998;2022-07-29T08:53:47;18.84;71.35
64997;SHT31;51545;51.568;6.998;2022-07-29T08:56:15;18.85;72.77
64997;SHT31;51545;51.568;6.998;2022-07-29T08:58:42;18.82;74.94
64997;SHT31;51545;51.568;6.998;2022-07-29T09:01:08;18.68;76.08
64997;SHT31;51545;51.568;6.998;2022-07-29T09:03:37;18.87;76.20
64997;SHT31;51545;51.568;6.998;2022-07-29T09:06:05;18.98;75.02
64997;SHT31;51545;51.568;6.998;2022-07-29T09:08:31;19.09;75.01
64997;SHT31;51545;51.568;6.998;2022-07-29T09:10:57;19.13;74.92
64997;SHT31;51545;51.568;6.998;2022-07-29T09:13:25;19.13;75.68
64997;SHT31;51545;51.568;6.998;2022-07-29T09:15:50;19.20;75.19
64997;SHT31;51545;51.568;6.998;2022-07-29T09:18:37;19.20;74.00
64997;SHT31;51545;51.568;6.998;2022-07-29T09:21:07;19.13;73.76
64997;SHT31;51545;51.568;6.998;2022-07-29T09:26:42;18.87;73.93
64997;SHT31;51545;51.568;6.998;2022-07-29T09:29:11;18.81;76.14
64997;SHT31;51545;51.568;6.998;2022-07-29T09:31:45;18.87;74.44
64997;SHT31;51545;51.568;6.998;2022-07-29T09:34:13;18.91;75.19
64997;SHT31;51545;51.568;6.998;2022-07-29T09:36:41;18.96;75.27
64997;SHT31;51545;51.568;6.998;2022-07-29T09:39:12;19.01;75.16
64997;SHT31;51545;51.568;6.998;2022-07-29T09:41:51;19.16;76.00
64997;SHT31;51545;51.568;6.998;2022-07-29T09:44:18;19.26;76.82
64997;SHT31;51545;51.568;6.998;2022-07-29T09:46:58;19.19;77.25
64997;SHT31;51545;51.568;6.998;2022-07-29T09:49:33;19.01;78.14
64997;SHT31;51545;51.568;6.998;2022-07-29T09:52:26;18.85;77.63
64997;SHT31;51545;51.568;6.998;2022-07-29T09:54:52;18.91;79.66
64997;SHT31;51545;51.568;6.998;2022-07-29T09:57:27;19.05;79.66
64997;SHT31;51545;51.568;6.998;2022-07-29T10:02:22;19.22;79.17
64997;SHT31;51545;51.568;6.998;2022-07-29T10:04:52;19.33;78.47
64997;SHT31;51545;51.568;6.998;2022-07-29T10:07:17;19.36;77.91
64997;SHT31;51545;51.568;6.998;2022-07-29T10:09:56;19.49;77.61
64997;SHT31;51545;51.568;6.998;2022-07-29T10:12:22;19.49;76.24
64997;SHT31;51545;51.568;6.998;2022-07-29T10:14:49;19.46;76.72
64997;SHT31;51545;51.568;6.998;2022-07-29T10:17:15;19.50;76.11
64997;SHT31;51545;51.568;6.998;2022-07-29T10:19:41;19.43;75.92
64997;SHT31;51545;51.568;6.998;2022-07-29T10:22:07;19.46;76.99
64997;SHT31;51545;51.568;6.998;2022-07-29T10:24:35;19.42;76.16
64997;SHT31;51545;51.568;6.998;2022-07-29T10:27:06;19.39;76.26
64997;SHT31;51545;51.568;6.998;2022-07-29T10:29:33;19.35;76.91
64997;SHT31;51545;51.568;6.998;2022-07-29T10:43:55;19.35;75.76
64997;SHT31;51545;51.568;6.998;2022-07-29T10:46:24;19.35;76.35
64997;SHT31;51545;51.568;6.998;2022-07-29T10:49:07;19.33;75.95
64997;SHT31;51545;51.568;6.998;2022-07-29T10:59:38;19.46;74.86
64997;SHT31;51545;51.568;6.998;2022-07-29T11:02:40;19.61;75.26
64997;SHT31;51545;51.568;6.998;2022-07-29T11:04:59;19.68;76.17
64997;SHT31;51545;51.568;6.998;2022-07-29T11:07:26;19.64;76.05
64997;SHT31;51545;51.568;6.998;2022-07-29T11:25:43;20.94;72.01
64997;SHT31;51545;51.568;6.998;2022-07-29T11:28:17;21.44;70.03
64997;SHT31;51545;51.568;6.998;2022-07-29T11:30:52;22.49;67.76
64997;SHT31;51545;51.568;6.998;2022-07-29T11:33:31;23.88;64.57
64997;SHT31;51545;51.568;6.998;2022-07-29T11:36:10;24.10;63.42
64997;SHT31;51545;51.568;6.998;2022-07-29T11:38:38;24.50;60.54
64997;SHT31;51545;51.568;6.998;2022-07-29T11:43:45;25.33;56.98
64997;SHT31;51545;51.568;6.998;2022-07-29T11:46:12;25.92;55.56
64997;SHT31;51545;51.568;6.998;2022-07-29T11:48:42;25.16;55.83
64997;SHT31;51545;51.568;6.998;2022-07-29T11:51:09;25.73;55.15
64997;SHT31;51545;51.568;6.998;2022-07-29T11:53:36;26.24;55.56
64997;SHT31;51545;51.568;6.998;2022-07-29T11:56:03;26.86;54.50
64997;SHT31;51545;51.568;6.998;2022-07-29T11:58:32;27.25;52.62
64997;SHT31;51545;51.568;6.998;2022-07-29T12:00:59;26.91;50.96
64997;SHT31;51545;51.568;6.998;2022-07-29T12:03:26;26.97;49.52
64997;SHT31;51545;51.568;6.998;2022-07-29T12:05:52;27.16;51.93
64997;SHT31;51545;51.568;6.998;2022-07-29T12:08:19;27.38;50.48
64997;SHT31;51545;51.568;6.998;2022-07-29T12:10:50;27.91;48.38
64997;SHT31;51545;51.568;6.998;2022-07-29T12:13:18;28.29;46.55
64997;SHT31;51545;51.568;6.998;2022-07-29T12:15:54;28.59;47.18
64997;SHT31;51545;51.568;6.998;2022-07-29T12:18:22;29.07;45.21
64997;SHT31;51545;51.568;6.998;2022-07-29T12:20:56;28.60;46.31
64997;SHT31;51545;51.568;6.998;2022-07-29T12:23:23;28.28;45.31
64997;SHT31;51545;51.568;6.998;2022-07-29T12:25:49;28.69;45.82
64997;SHT31;51545;51.568;6.998;2022-07-29T12:28:14;28.42;46.72
64997;SHT31;51545;51.568;6.998;2022-07-29T12:30:47;28.63;47.50
64997;SHT31;51545;51.568;6.998;2022-07-29T12:33:17;29.12;46.17
64997;SHT31;51545;51.568;6.998;2022-07-29T12:35:46;28.43;46.69
64997;SHT31;51545;51.568;6.998;2022-07-29T12:38:14;27.85;47.93
64997;SHT31;51545;51.568;6.998;2022-07-29T12:40:40;26.06;51.31
64997;SHT31;51545;51.568;6.998;2022-07-29T12:45:35;25.37;53.10
64997;SHT31;51545;51.568;6.998;2022-07-29T12:48:05;25.49;53.86
64997;SHT31;51545;51.568;6.998;2022-07-29T12:50:33;25.69;52.25
64997;SHT31;51545;51.568;6.998;2022-07-29T12:53:09;25.71;53.43
64997;SHT31;51545;51.568;6.998;2022-07-29T12:58:10;25.73;53.52
64997;SHT31;51545;51.568;6.998;2022-07-29T13:00:35;24.88;54.19
64997;SHT31;51545;51.568;6.998;2022-07-29T13:03:01;24.67;55.39
64997;SHT31;51545;51.568;6.998;2022-07-29T13:05:42;24.63;56.78
64997;SHT31;51545;51.568;6.998;2022-07-29T13:08:13;24.77;57.32
64997;SHT31;51545;51.568;6.998;2022-07-29T13:10:40;24.12;57.77
64997;SHT31;51545;51.568;6.998;2022-07-29T13:13:07;24.22;58.48
64997;SHT31;51545;51.568;6.998;2022-07-29T13:15:37;24.18;58.03
64997;SHT31;51545;51.568;6.998;2022-07-29T13:18:04;24.09;57.80
64997;SHT31;51545;51.568;6.998;2022-07-29T13:20:30;24.27;57.04
64997;SHT31;51545;51.568;6.998;2022-07-29T13:22:57;24.57;56.58
64997;SHT31;51545;51.568;6.998;2022-07-29T13:25:24;25.25;55.30
64997;SHT31;51545;51.568;6.998;2022-07-29T13:27:51;25.70;54.44
64997;SHT31;51545;51.568;6.998;2022-07-29T13:30:19;25.90;52.85
64997;SHT31;51545;51.568;6.998;2022-07-29T13:32:45;26.15;53.34
64997;SHT31;51545;51.568;6.998;2022-07-29T13:35:11;26.08;52.73
64997;SHT31;51545;51.568;6.998;2022-07-29T13:37:38;26.15;52.57
64997;SHT31;51545;51.568;6.998;2022-07-29T13:40:04;26.04;51.93
64997;SHT31;51545;51.568;6.998;2022-07-29T13:42:31;26.47;51.15
64997;SHT31;51545;51.568;6.998;2022-07-29T13:44:57;26.52;52.40
64997;SHT31;51545;51.568;6.998;2022-07-29T13:47:23;25.91;56.05
64997;SHT31;51545;51.568;6.998;2022-07-29T13:49:49;24.95;57.51
64997;SHT31;51545;51.568;6.998;2022-07-29T13:52:15;25.33;58.20
64997;SHT31;51545;51.568;6.998;2022-07-29T13:54:41;26.02;56.72
64997;SHT31;51545;51.568;6.998;2022-07-29T13:57:08;26.67;56.57
64997;SHT31;51545;51.568;6.998;2022-07-29T13:59:35;27.43;54.29
64997;SHT31;51545;51.568;6.998;2022-07-29T14:02:01;26.97;54.51
64997;SHT31;51545;51.568;6.998;2022-07-29T14:04:27;26.43;56.19
64997;SHT31;51545;51.568;6.998;2022-07-29T14:06:52;26.73;54.93
64997;SHT31;51545;51.568;6.998;2022-07-29T14:09:18;27.50;53.99
64997;SHT31;51545;51.568;6.998;2022-07-29T14:11:43;27.60;53.12
64997;SHT31;51545;51.568;6.998;2022-07-29T14:14:09;28.90;49.55
64997;SHT31;51545;51.568;6.998;2022-07-29T14:16:35;29.63;48.82
64997;SHT31;51545;51.568;6.998;2022-07-29T14:19:01;30.07;47.01
64997;SHT31;51545;51.568;6.998;2022-07-29T14:21:27;30.09;47.41
64997;SHT31;51545;51.568;6.998;2022-07-29T14:23:53;28.97;49.84
64997;SHT31;51545;51.568;6.998;2022-07-29T14:26:19;28.28;52.53
64997;SHT31;51545;51.568;6.998;2022-07-29T14:28:46;27.53;53.28
64997;SHT31;51545;51.568;6.998;2022-07-29T14:31:12;26.86;54.99
64997;SHT31;51545;51.568;6.998;2022-07-29T14:33:37;26.06;56.14
64997;SHT31;51545;51.568;6.998;2022-07-29T14:36:03;26.49;55.96
64997;SHT31;51545;51.568;6.998;2022-07-29T14:38:28;26.60;55.12
64997;SHT31;51545;51.568;6.998;2022-07-29T14:40:54;26.73;55.38
64997;SHT31;51545;51.568;6.998;2022-07-29T14:43:19;25.95;56.91
64997;SHT31;51545;51.568;6.998;2022-07-29T14:45:45;26.18;57.64
64997;SHT31;51545;51.568;6.998;2022-07-29T14:48:10;26.77;55.48
64997;SHT31;51545;51.568;6.998;2022-07-29T14:50:36;27.39;54.76
64997;SHT31;51545;51.568;6.998;2022-07-29T14:53:02;27.54;53.26
64997;SHT31;51545;51.568;6.998;2022-07-29T14:55:28;27.47;52.29
64997;SHT31;51545;51.568;6.998;2022-07-29T14:57:54;27.38;53.98
64997;SHT31;51545;51.568;6.998;2022-07-29T15:00:21;27.74;52.76
64997;SHT31;51545;51.568;6.998;2022-07-29T15:02:47;28.02;51.27
64997;SHT31;51545;51.568;6.998;2022-07-29T15:05:13;28.21;50.18
64997;SHT31;51545;51.568;6.998;2022-07-29T15:07:38;28.11;50.35
64997;SHT31;51545;51.568;6.998;2022-07-29T15:10:04;27.59;51.36
64997;SHT31;51545;51.568;6.998;2022-07-29T15:12:30;27.81;50.56
64997;SHT31;51545;51.568;6.998;2022-07-29T15:14:56;27.73;50.65
64997;SHT31;51545;51.568;6.998;2022-07-29T15:17:21;27.92;50.59
64997;SHT31;51545;51.568;6.998;2022-07-29T15:19:47;27.53;51.38
64997;SHT31;51545;51.568;6.998;2022-07-29T15:22:12;27.92;51.16
64997;SHT31;51545;51.568;6.998;2022-07-29T15:24:38;27.74;50.67
64997;SHT31;51545;51.568;6.998;2022-07-29T15:27:03;27.23;51.53
64997;SHT31;51545;51.568;6.998;2022-07-29T15:29:29;27.54;52.32
64997;SHT31;51545;51.568;6.998;2022-07-29T15:31:54;28.01;50.72
64997;SHT31;51545;51.568;6.998;2022-07-29T15:34:20;27.66;50.65
64997;SHT31;51545;51.568;6.998;2022-07-29T15:36:46;27.88;50.37
64997;SHT31;51545;51.568;6.998;2022-07-29T15:39:11;28.39;49.89
64997;SHT31;51545;51.568;6.998;2022-07-29T15:41:37;28.80;48.42
64997;SHT31;51545;51.568;6.998;2022-07-29T15:44:02;29.11;46.78
64997;SHT31;51545;51.568;6.998;2022-07-29T15:46:28;28.95;47.33
64997;SHT31;51545;51.568;6.998;2022-07-29T15:49:12;28.07;49.37
64997;SHT31;51545;51.568;6.998;2022-07-29T15:51:38;27.38;49.76
64997;SHT31;51545;51.568;6.998;2022-07-29T15:54:03;26.94;51.37
64997;SHT31;51545;51.568;6.998;2022-07-29T15:56:30;27.43;50.49
64997;SHT31;51545;51.568;6.998;2022-07-29T15:58:56;27.92;49.23
64997;SHT31;51545;51.568;6.998;2022-07-29T16:01:22;28.46;48.12
64997;SHT31;51545;51.568;6.998;2022-07-29T16:03:48;28.47;47.61
64997;SHT31;51545;51.568;6.998;2022-07-29T16:06:14;27.49;50.74
64997;SHT31;51545;51.568;6.998;2022-07-29T16:08:40;28.08;48.79
64997;SHT31;51545;51.568;6.998;2022-07-29T16:11:06;28.31;49.49
64997;SHT31;51545;51.568;6.998;2022-07-29T16:13:31;27.85;49.79
64997;SHT31;51545;51.568;6.998;2022-07-29T16:15:57;28.25;49.87
64997;SHT31;51545;51.568;6.998;2022-07-29T16:18:22;28.59;47.28
64997;SHT31;51545;51.568;6.998;2022-07-29T16:20:48;28.35;49.02
64997;SHT31;51545;51.568;6.998;2022-07-29T16:23:13;27.97;50.14
64997;SHT31;51545;51.568;6.998;2022-07-29T16:25:40;27.94;50.62
64997;SHT31;51545;51.568;6.998;2022-07-29T16:28:06;28.57;48.82
64997;SHT31;51545;51.568;6.998;2022-07-29T16:30:35;27.98;49.00
64997;SHT31;51545;51.568;6.998;2022-07-29T16:33:01;28.66;49.06
64997;SHT31;51545;51.568;6.998;2022-07-29T16:35:27;28.36;48.91
64997;SHT31;51545;51.568;6.998;2022-07-29T16:37:54;28.11;48.86